Terminal Aerodrome Forecast
Issued by NWS Charleston, WV

Current Version | Previous Version | Graphics & Text | Print | Product List | Glossary On
Versions: 1 2 3 4 5 6 7 8 9 10 11 12 13 14 15 16 17 18 19 20 21 22 23 24 25 26 27
000
FTUS41 KRLX 010859 AAA
TAFCRW
TAF AMD
KCRW 010859Z 0109/0206 00000KT 3SM BR SCT001 BKN035
      TEMPO 0109/0111 2SM BR BKN001
     FM011300 24004KT P6SM BKN035
     FM011600 26006KT P6SM SCT035
     FM012000 28005KT P6SM VCTS SCT050CB
     FM020100 28004KT P6SM SCT060=

USA.gov is the U.S. government's official web portal to all federal, state and local government web resources and services.